sensor_id;sensor_type;location;lat;lon;timestamp;temperature;humidity
7362;DHT22;3721;44.490;11.220;2022-07-24T00:02:13;29.80;48.90
7362;DHT22;3721;44.490;11.220;2022-07-24T00:04:38;29.70;49.00
7362;DHT22;3721;44.490;11.220;2022-07-24T00:07:04;29.50;49.20
7362;DHT22;3721;44.490;11.220;2022-07-24T00:09:30;29.40;49.40
7362;DHT22;3721;44.490;11.220;2022-07-24T00:11:56;29.30;49.70
7362;DHT22;3721;44.490;11.220;2022-07-24T00:14:22;29.20;49.90
7362;DHT22;3721;44.490;11.220;2022-07-24T00:16:48;29.20;50.10
7362;DHT22;3721;44.490;11.220;2022-07-24T00:19:14;29.20;50.20
7362;DHT22;3721;44.490;11.220;2022-07-24T00:21:39;29.20;50.30
7362;DHT22;3721;44.490;11.220;2022-07-24T00:24:05;29.20;50.30
7362;DHT22;3721;44.490;11.220;2022-07-24T00:26:31;29.20;50.40
7362;DHT22;3721;44.490;11.220;2022-07-24T00:28:57;29.20;50.50
7362;DHT22;3721;44.490;11.220;2022-07-24T00:31:23;29.20;50.60
7362;DHT22;3721;44.490;11.220;2022-07-24T00:33:49;29.10;50.60
7362;DHT22;3721;44.490;11.220;2022-07-24T00:36:15;29.10;50.70
7362;DHT22;3721;44.490;11.220;2022-07-24T00:38:41;29.10;50.90
7362;DHT22;3721;44.490;11.220;2022-07-24T00:41:08;29.10;51.00
7362;DHT22;3721;44.490;11.220;2022-07-24T00:43:34;29.00;51.00
7362;DHT22;3721;44.490;11.220;2022-07-24T00:46:00;28.90;51.10
7362;DHT22;3721;44.490;11.220;2022-07-24T00:48:26;28.90;51.30
7362;DHT22;3721;44.490;11.220;2022-07-24T00:50:51;28.80;51.50
7362;DHT22;3721;44.490;11.220;2022-07-24T00:53:17;28.80;51.60
7362;DHT22;3721;44.490;11.220;2022-07-24T00:55:43;28.70;51.70
7362;DHT22;3721;44.490;11.220;2022-07-24T00:58:09;28.70;51.80
7362;DHT22;3721;44.490;11.220;2022-07-24T01:00:35;28.70;51.90
7362;DHT22;3721;44.490;11.220;2022-07-24T01:03:01;28.70;52.00
7362;DHT22;3721;44.490;11.220;2022-07-24T01:05:27;28.70;52.10
7362;DHT22;3721;44.490;11.220;2022-07-24T01:07:53;28.70;52.20
7362;DHT22;3721;44.490;11.220;2022-07-24T01:10:18;28.70;52.10
7362;DHT22;3721;44.490;11.220;2022-07-24T01:12:44;28.70;52.10
7362;DHT22;3721;44.490;11.220;2022-07-24T01:15:11;28.70;52.10
7362;DHT22;3721;44.490;11.220;2022-07-24T01:17:39;28.70;52.20
7362;DHT22;3721;44.490;11.220;2022-07-24T01:20:07;28.70;52.20
7362;DHT22;3721;44.490;11.220;2022-07-24T01:22:33;28.70;52.20
7362;DHT22;3721;44.490;11.220;2022-07-24T01:24:59;28.70;52.20
7362;DHT22;3721;44.490;11.220;2022-07-24T01:27:25;28.70;52.30
7362;DHT22;3721;44.490;11.220;2022-07-24T01:29:51;28.60;52.30
7362;DHT22;3721;44.490;11.220;2022-07-24T01:32:17;28.60;52.30
7362;DHT22;3721;44.490;11.220;2022-07-24T01:34:44;28.60;52.30
7362;DHT22;3721;44.490;11.220;2022-07-24T01:37:09;28.60;52.30
7362;DHT22;3721;44.490;11.220;2022-07-24T01:39:35;28.60;52.30
7362;DHT22;3721;44.490;11.220;2022-07-24T01:42:01;28.60;52.40
7362;DHT22;3721;44.490;11.220;2022-07-24T01:44:27;28.60;52.40
7362;DHT22;3721;44.490;11.220;2022-07-24T01:46:53;28.50;52.30
7362;DHT22;3721;44.490;11.220;2022-07-24T01:49:19;28.60;52.20
7362;DHT22;3721;44.490;11.220;2022-07-24T01:51:44;28.60;52.20
7362;DHT22;3721;44.490;11.220;2022-07-24T01:54:10;28.70;52.20
7362;DHT22;3721;44.490;11.220;2022-07-24T01:56:36;28.70;52.10
7362;DHT22;3721;44.490;11.220;2022-07-24T01:59:02;28.70;52.00
7362;DHT22;3721;44.490;11.220;2022-07-24T02:01:28;28.70;52.10
7362;DHT22;3721;44.490;11.220;2022-07-24T02:03:54;28.70;52.30
7362;DHT22;3721;44.490;11.220;2022-07-24T02:06:20;28.60;52.40
7362;DHT22;3721;44.490;11.220;2022-07-24T02:08:46;28.60;52.30
7362;DHT22;3721;44.490;11.220;2022-07-24T02:11:12;28.60;52.40
7362;DHT22;3721;44.490;11.220;2022-07-24T02:13:38;28.60;52.50
7362;DHT22;3721;44.490;11.220;2022-07-24T02:16:04;28.60;52.50
7362;DHT22;3721;44.490;11.220;2022-07-24T02:18:29;28.60;52.50
7362;DHT22;3721;44.490;11.220;2022-07-24T02:20:55;28.60;52.50
7362;DHT22;3721;44.490;11.220;2022-07-24T02:23:21;28.50;52.40
7362;DHT22;3721;44.490;11.220;2022-07-24T02:25:48;28.50;52.50
7362;DHT22;3721;44.490;11.220;2022-07-24T02:28:14;28.50;52.50
7362;DHT22;3721;44.490;11.220;2022-07-24T02:30:42;28.50;52.60
7362;DHT22;3721;44.490;11.220;2022-07-24T02:33:08;28.40;52.60
7362;DHT22;3721;44.490;11.220;2022-07-24T02:35:34;28.40;52.70
7362;DHT22;3721;44.490;11.220;2022-07-24T02:38:00;28.30;52.70
7362;DHT22;3721;44.490;11.220;2022-07-24T02:40:26;28.30;52.80
7362;DHT22;3721;44.490;11.220;2022-07-24T02:42:52;28.30;53.00
7362;DHT22;3721;44.490;11.220;2022-07-24T02:45:18;28.20;53.20
7362;DHT22;3721;44.490;11.220;2022-07-24T02:47:49;28.20;53.30
7362;DHT22;3721;44.490;11.220;2022-07-24T02:50:16;28.20;53.40
7362;DHT22;3721;44.490;11.220;2022-07-24T02:52:42;28.10;53.30
7362;DHT22;3721;44.490;11.220;2022-07-24T02:55:08;28.10;53.40
7362;DHT22;3721;44.490;11.220;2022-07-24T02:57:35;28.10;53.50
7362;DHT22;3721;44.490;11.220;2022-07-24T03:00:06;28.10;53.60
7362;DHT22;3721;44.490;11.220;2022-07-24T03:02:33;28.10;53.70
7362;DHT22;3721;44.490;11.220;2022-07-24T03:04:59;28.00;53.60
7362;DHT22;3721;44.490;11.220;2022-07-24T03:07:25;28.00;53.70
7362;DHT22;3721;44.490;11.220;2022-07-24T03:09:50;28.00;53.80
7362;DHT22;3721;44.490;11.220;2022-07-24T03:12:16;27.90;53.80
7362;DHT22;3721;44.490;11.220;2022-07-24T03:14:42;28.00;53.90
7362;DHT22;3721;44.490;11.220;2022-07-24T03:17:07;27.90;53.90
7362;DHT22;3721;44.490;11.220;2022-07-24T03:19:33;27.90;54.00
7362;DHT22;3721;44.490;11.220;2022-07-24T03:21:59;27.90;54.00
7362;DHT22;3721;44.490;11.220;2022-07-24T03:24:25;27.90;54.00
7362;DHT22;3721;44.490;11.220;2022-07-24T03:26:51;27.90;53.90
7362;DHT22;3721;44.490;11.220;2022-07-24T03:29:16;27.90;53.90
7362;DHT22;3721;44.490;11.220;2022-07-24T03:31:42;27.90;54.00
7362;DHT22;3721;44.490;11.220;2022-07-24T03:34:08;27.90;54.00
7362;DHT22;3721;44.490;11.220;2022-07-24T03:36:34;27.90;54.00
7362;DHT22;3721;44.490;11.220;2022-07-24T03:39:01;27.80;53.90
7362;DHT22;3721;44.490;11.220;2022-07-24T03:41:27;27.90;54.00
7362;DHT22;3721;44.490;11.220;2022-07-24T03:43:52;27.80;53.90
7362;DHT22;3721;44.490;11.220;2022-07-24T03:46:18;27.80;54.10
7362;DHT22;3721;44.490;11.220;2022-07-24T03:48:44;27.80;54.10
7362;DHT22;3721;44.490;11.220;2022-07-24T03:51:10;27.80;54.20
7362;DHT22;3721;44.490;11.220;2022-07-24T03:53:36;27.70;54.10
7362;DHT22;3721;44.490;11.220;2022-07-24T03:56:10;27.80;54.20
7362;DHT22;3721;44.490;11.220;2022-07-24T03:58:37;27.80;54.20
7362;DHT22;3721;44.490;11.220;2022-07-24T04:01:03;27.80;54.20
7362;DHT22;3721;44.490;11.220;2022-07-24T04:03:28;27.70;54.10
7362;DHT22;3721;44.490;11.220;2022-07-24T04:05:54;27.80;54.20
7362;DHT22;3721;44.490;11.220;2022-07-24T04:08:20;27.80;54.30
7362;DHT22;3721;44.490;11.220;2022-07-24T04:10:46;27.80;54.30
7362;DHT22;3721;44.490;11.220;2022-07-24T04:13:12;27.80;54.30
7362;DHT22;3721;44.490;11.220;2022-07-24T04:15:40;27.80;54.30
7362;DHT22;3721;44.490;11.220;2022-07-24T04:18:06;27.80;54.20
7362;DHT22;3721;44.490;11.220;2022-07-24T04:20:32;27.80;54.30
7362;DHT22;3721;44.490;11.220;2022-07-24T04:22:58;27.80;54.30
7362;DHT22;3721;44.490;11.220;2022-07-24T04:25:23;27.80;54.30
7362;DHT22;3721;44.490;11.220;2022-07-24T04:27:49;27.80;54.40
7362;DHT22;3721;44.490;11.220;2022-07-24T04:30:15;27.80;54.50
7362;DHT22;3721;44.490;11.220;2022-07-24T04:32:41;27.80;54.60
7362;DHT22;3721;44.490;11.220;2022-07-24T04:35:09;27.80;54.70
7362;DHT22;3721;44.490;11.220;2022-07-24T04:37:35;27.80;54.90
7362;DHT22;3721;44.490;11.220;2022-07-24T04:40:01;27.80;55.00
7362;DHT22;3721;44.490;11.220;2022-07-24T04:42:27;27.90;55.80
7362;DHT22;3721;44.490;11.220;2022-07-24T04:44:53;27.90;55.20
7362;DHT22;3721;44.490;11.220;2022-07-24T04:47:18;27.90;55.20
7362;DHT22;3721;44.490;11.220;2022-07-24T04:49:44;27.90;55.20
7362;DHT22;3721;44.490;11.220;2022-07-24T04:52:10;28.00;55.40
7362;DHT22;3721;44.490;11.220;2022-07-24T04:54:35;28.00;55.40
7362;DHT22;3721;44.490;11.220;2022-07-24T04:57:02;28.00;55.40
7362;DHT22;3721;44.490;11.220;2022-07-24T04:59:28;28.10;55.50
7362;DHT22;3721;44.490;11.220;2022-07-24T05:01:55;28.10;55.40
7362;DHT22;3721;44.490;11.220;2022-07-24T05:04:20;28.20;55.50
7362;DHT22;3721;44.490;11.220;2022-07-24T05:06:46;28.20;55.50
7362;DHT22;3721;44.490;11.220;2022-07-24T05:09:12;28.20;55.50
7362;DHT22;3721;44.490;11.220;2022-07-24T05:11:38;28.20;55.60
7362;DHT22;3721;44.490;11.220;2022-07-24T05:14:04;28.30;55.50
7362;DHT22;3721;44.490;11.220;2022-07-24T05:16:30;28.30;55.70
7362;DHT22;3721;44.490;11.220;2022-07-24T05:18:56;28.30;55.70
7362;DHT22;3721;44.490;11.220;2022-07-24T05:21:21;28.30;55.70
7362;DHT22;3721;44.490;11.220;2022-07-24T05:23:47;28.40;55.70
7362;DHT22;3721;44.490;11.220;2022-07-24T05:26:13;28.40;55.70
7362;DHT22;3721;44.490;11.220;2022-07-24T05:28:39;28.50;55.70
7362;DHT22;3721;44.490;11.220;2022-07-24T05:31:05;28.50;55.60
7362;DHT22;3721;44.490;11.220;2022-07-24T05:33:31;28.50;55.70
7362;DHT22;3721;44.490;11.220;2022-07-24T05:35:57;28.60;55.60
7362;DHT22;3721;44.490;11.220;2022-07-24T05:38:22;28.60;55.80
7362;DHT22;3721;44.490;11.220;2022-07-24T05:40:48;28.70;56.10
7362;DHT22;3721;44.490;11.220;2022-07-24T05:43:14;28.80;56.40
7362;DHT22;3721;44.490;11.220;2022-07-24T05:45:42;29.00;56.70
7362;DHT22;3721;44.490;11.220;2022-07-24T05:48:08;29.30;56.80
7362;DHT22;3721;44.490;11.220;2022-07-24T05:50:34;29.60;56.60
7362;DHT22;3721;44.490;11.220;2022-07-24T05:52:59;29.90;56.50
7362;DHT22;3721;44.490;11.220;2022-07-24T05:55:25;30.20;56.30
7362;DHT22;3721;44.490;11.220;2022-07-24T05:57:51;30.50;56.30
7362;DHT22;3721;44.490;11.220;2022-07-24T06:00:17;30.70;56.00
7362;DHT22;3721;44.490;11.220;2022-07-24T06:02:46;30.90;55.70
7362;DHT22;3721;44.490;11.220;2022-07-24T06:05:15;31.10;56.00
7362;DHT22;3721;44.490;11.220;2022-07-24T06:07:42;31.20;55.40
7362;DHT22;3721;44.490;11.220;2022-07-24T06:10:08;31.30;55.30
7362;DHT22;3721;44.490;11.220;2022-07-24T06:12:34;31.40;55.20
7362;DHT22;3721;44.490;11.220;2022-07-24T06:15:00;31.40;54.80
7362;DHT22;3721;44.490;11.220;2022-07-24T06:17:26;31.50;55.10
7362;DHT22;3721;44.490;11.220;2022-07-24T06:19:52;31.50;55.20
7362;DHT22;3721;44.490;11.220;2022-07-24T06:22:18;31.60;55.40
7362;DHT22;3721;44.490;11.220;2022-07-24T06:24:43;31.60;55.30
7362;DHT22;3721;44.490;11.220;2022-07-24T06:27:09;31.80;55.50
7362;DHT22;3721;44.490;11.220;2022-07-24T06:29:35;31.90;55.90
7362;DHT22;3721;44.490;11.220;2022-07-24T06:32:01;32.00;55.60
7362;DHT22;3721;44.490;11.220;2022-07-24T06:34:26;32.10;55.40
7362;DHT22;3721;44.490;11.220;2022-07-24T06:36:52;32.30;55.70
7362;DHT22;3721;44.490;11.220;2022-07-24T06:39:18;32.50;55.40
7362;DHT22;3721;44.490;11.220;2022-07-24T06:41:44;32.60;55.20
7362;DHT22;3721;44.490;11.220;2022-07-24T06:44:10;32.80;55.00
7362;DHT22;3721;44.490;11.220;2022-07-24T06:46:36;33.00;54.60
7362;DHT22;3721;44.490;11.220;2022-07-24T06:49:02;33.00;53.80
7362;DHT22;3721;44.490;11.220;2022-07-24T06:51:28;33.00;53.70
7362;DHT22;3721;44.490;11.220;2022-07-24T06:53:53;33.10;53.60
7362;DHT22;3721;44.490;11.220;2022-07-24T06:56:19;33.20;53.40
7362;DHT22;3721;44.490;11.220;2022-07-24T06:58:45;33.40;53.60
7362;DHT22;3721;44.490;11.220;2022-07-24T07:01:11;33.50;53.60
7362;DHT22;3721;44.490;11.220;2022-07-24T07:03:37;33.70;53.60
7362;DHT22;3721;44.490;11.220;2022-07-24T07:06:03;33.90;53.60
7362;DHT22;3721;44.490;11.220;2022-07-24T07:08:29;34.10;53.20
7362;DHT22;3721;44.490;11.220;2022-07-24T07:10:55;34.20;52.80
7362;DHT22;3721;44.490;11.220;2022-07-24T07:13:21;34.30;52.40
7362;DHT22;3721;44.490;11.220;2022-07-24T07:15:46;34.30;51.90
7362;DHT22;3721;44.490;11.220;2022-07-24T07:18:12;34.30;51.70
7362;DHT22;3721;44.490;11.220;2022-07-24T07:20:39;34.30;51.40
7362;DHT22;3721;44.490;11.220;2022-07-24T07:23:04;34.30;51.20
7362;DHT22;3721;44.490;11.220;2022-07-24T07:25:30;34.30;51.00
7362;DHT22;3721;44.490;11.220;2022-07-24T07:27:56;34.20;51.30
7362;DHT22;3721;44.490;11.220;2022-07-24T07:30:22;34.30;51.30
7362;DHT22;3721;44.490;11.220;2022-07-24T07:32:48;34.30;51.50
7362;DHT22;3721;44.490;11.220;2022-07-24T07:35:13;34.20;51.40
7362;DHT22;3721;44.490;11.220;2022-07-24T07:37:39;34.20;51.40
7362;DHT22;3721;44.490;11.220;2022-07-24T07:40:05;34.20;51.50
7362;DHT22;3721;44.490;11.220;2022-07-24T07:42:31;34.20;51.70
7362;DHT22;3721;44.490;11.220;2022-07-24T07:44:57;34.30;51.80
7362;DHT22;3721;44.490;11.220;2022-07-24T07:47:23;34.40;51.90
7362;DHT22;3721;44.490;11.220;2022-07-24T07:49:49;34.50;52.00
7362;DHT22;3721;44.490;11.220;2022-07-24T07:52:14;34.60;51.80
7362;DHT22;3721;44.490;11.220;2022-07-24T07:54:40;34.60;51.70
7362;DHT22;3721;44.490;11.220;2022-07-24T07:57:06;34.70;51.60
7362;DHT22;3721;44.490;11.220;2022-07-24T07:59:32;34.80;51.60
7362;DHT22;3721;44.490;11.220;2022-07-24T08:01:57;34.80;51.60
7362;DHT22;3721;44.490;11.220;2022-07-24T08:04:23;34.90;51.40
7362;DHT22;3721;44.490;11.220;2022-07-24T08:06:50;34.90;51.20
7362;DHT22;3721;44.490;11.220;2022-07-24T08:09:16;34.80;51.40
7362;DHT22;3721;44.490;11.220;2022-07-24T08:11:42;35.00;51.50
7362;DHT22;3721;44.490;11.220;2022-07-24T08:14:07;35.10;51.60
7362;DHT22;3721;44.490;11.220;2022-07-24T08:16:33;35.20;51.60
7362;DHT22;3721;44.490;11.220;2022-07-24T08:18:59;35.30;51.90
7362;DHT22;3721;44.490;11.220;2022-07-24T08:21:25;35.40;51.80
7362;DHT22;3721;44.490;11.220;2022-07-24T08:23:50;35.50;51.60
7362;DHT22;3721;44.490;11.220;2022-07-24T08:26:16;35.50;51.30
7362;DHT22;3721;44.490;11.220;2022-07-24T08:28:42;35.40;51.30
7362;DHT22;3721;44.490;11.220;2022-07-24T08:31:08;35.40;52.00
7362;DHT22;3721;44.490;11.220;2022-07-24T08:33:34;35.30;51.30
7362;DHT22;3721;44.490;11.220;2022-07-24T08:35:59;35.30;51.50
7362;DHT22;3721;44.490;11.220;2022-07-24T08:38:25;35.20;51.50
7362;DHT22;3721;44.490;11.220;2022-07-24T08:40:52;35.20;51.40
7362;DHT22;3721;44.490;11.220;2022-07-24T08:43:18;35.20;51.50
7362;DHT22;3721;44.490;11.220;2022-07-24T08:45:43;35.20;51.60
7362;DHT22;3721;44.490;11.220;2022-07-24T08:48:10;35.10;51.50
7362;DHT22;3721;44.490;11.220;2022-07-24T08:50:39;35.10;51.70
7362;DHT22;3721;44.490;11.220;2022-07-24T08:53:05;35.10;51.70
7362;DHT22;3721;44.490;11.220;2022-07-24T08:55:31;35.00;51.70
7362;DHT22;3721;44.490;11.220;2022-07-24T08:57:58;35.00;51.90
7362;DHT22;3721;44.490;11.220;2022-07-24T09:00:26;35.00;52.10
7362;DHT22;3721;44.490;11.220;2022-07-24T09:02:52;35.00;52.10
7362;DHT22;3721;44.490;11.220;2022-07-24T09:05:18;35.00;52.10
7362;DHT22;3721;44.490;11.220;2022-07-24T09:07:44;35.00;52.30
7362;DHT22;3721;44.490;11.220;2022-07-24T09:10:13;35.00;52.40
7362;DHT22;3721;44.490;11.220;2022-07-24T09:12:41;34.90;52.30
7362;DHT22;3721;44.490;11.220;2022-07-24T09:15:16;34.90;52.50
7362;DHT22;3721;44.490;11.220;2022-07-24T09:17:50;34.80;52.40
7362;DHT22;3721;44.490;11.220;2022-07-24T09:20:16;34.80;52.60
7362;DHT22;3721;44.490;11.220;2022-07-24T09:22:43;34.80;52.70
7362;DHT22;3721;44.490;11.220;2022-07-24T09:25:10;34.80;52.70
7362;DHT22;3721;44.490;11.220;2022-07-24T09:27:38;34.90;52.70
7362;DHT22;3721;44.490;11.220;2022-07-24T09:30:06;34.90;52.70
7362;DHT22;3721;44.490;11.220;2022-07-24T09:32:32;34.90;52.80
7362;DHT22;3721;44.490;11.220;2022-07-24T09:34:58;34.80;52.80
7362;DHT22;3721;44.490;11.220;2022-07-24T09:37:26;34.80;52.90
7362;DHT22;3721;44.490;11.220;2022-07-24T09:39:52;34.80;53.00
7362;DHT22;3721;44.490;11.220;2022-07-24T09:42:30;34.80;53.10
7362;DHT22;3721;44.490;11.220;2022-07-24T09:44:58;34.80;53.10
7362;DHT22;3721;44.490;11.220;2022-07-24T09:47:24;34.80;53.20
7362;DHT22;3721;44.490;11.220;2022-07-24T09:49:50;34.80;53.20
7362;DHT22;3721;44.490;11.220;2022-07-24T09:52:20;34.80;53.30
7362;DHT22;3721;44.490;11.220;2022-07-24T09:54:50;34.80;53.30
7362;DHT22;3721;44.490;11.220;2022-07-24T09:57:28;34.80;53.10
7362;DHT22;3721;44.490;11.220;2022-07-24T09:59:59;34.90;53.10
7362;DHT22;3721;44.490;11.220;2022-07-24T10:02:30;34.90;53.00
7362;DHT22;3721;44.490;11.220;2022-07-24T10:04:57;34.80;52.90
7362;DHT22;3721;44.490;11.220;2022-07-24T10:07:24;34.80;53.00
7362;DHT22;3721;44.490;11.220;2022-07-24T10:09:53;34.90;53.30
7362;DHT22;3721;44.490;11.220;2022-07-24T10:12:21;34.90;53.20
7362;DHT22;3721;44.490;11.220;2022-07-24T10:14:50;34.90;53.10
7362;DHT22;3721;44.490;11.220;2022-07-24T10:17:17;34.80;52.90
7362;DHT22;3721;44.490;11.220;2022-07-24T10:19:48;34.80;53.00
7362;DHT22;3721;44.490;11.220;2022-07-24T10:22:17;34.80;53.10
7362;DHT22;3721;44.490;11.220;2022-07-24T10:25:05;34.80;53.20
7362;DHT22;3721;44.490;11.220;2022-07-24T10:27:33;34.80;53.20
7362;DHT22;3721;44.490;11.220;2022-07-24T10:30:07;34.80;53.20
7362;DHT22;3721;44.490;11.220;2022-07-24T10:32:34;34.80;53.30
7362;DHT22;3721;44.490;11.220;2022-07-24T10:35:17;34.90;53.00
7362;DHT22;3721;44.490;11.220;2022-07-24T10:40:39;34.90;53.10
7362;DHT22;3721;44.490;11.220;2022-07-24T10:53:28;34.90;52.70
7362;DHT22;3721;44.490;11.220;2022-07-24T10:56:24;34.90;52.70
7362;DHT22;3721;44.490;11.220;2022-07-24T10:59:14;34.90;52.70
7362;DHT22;3721;44.490;11.220;2022-07-24T11:01:48;35.00;52.50
7362;DHT22;3721;44.490;11.220;2022-07-24T11:09:22;35.00;51.80
7362;DHT22;3721;44.490;11.220;2022-07-24T11:14:22;35.10;51.40
7362;DHT22;3721;44.490;11.220;2022-07-24T11:16:48;35.20;51.40
7362;DHT22;3721;44.490;11.220;2022-07-24T11:21:44;35.20;51.10
7362;DHT22;3721;44.490;11.220;2022-07-24T11:26:52;35.30;51.30
7362;DHT22;3721;44.490;11.220;2022-07-24T11:29:21;35.30;50.70
7362;DHT22;3721;44.490;11.220;2022-07-24T11:32:12;35.30;50.50
7362;DHT22;3721;44.490;11.220;2022-07-24T11:34:45;35.30;50.30
7362;DHT22;3721;44.490;11.220;2022-07-24T11:37:11;35.30;50.20
7362;DHT22;3721;44.490;11.220;2022-07-24T11:39:39;35.30;50.30
7362;DHT22;3721;44.490;11.220;2022-07-24T11:42:07;35.30;50.30
7362;DHT22;3721;44.490;11.220;2022-07-24T11:44:38;35.30;50.10
7362;DHT22;3721;44.490;11.220;2022-07-24T11:47:11;35.30;49.80
7362;DHT22;3721;44.490;11.220;2022-07-24T11:49:50;35.30;49.80
7362;DHT22;3721;44.490;11.220;2022-07-24T11:52:23;35.30;49.60
7362;DHT22;3721;44.490;11.220;2022-07-24T11:54:51;35.30;49.10
7362;DHT22;3721;44.490;11.220;2022-07-24T11:57:25;35.30;48.60
7362;DHT22;3721;44.490;11.220;2022-07-24T11:59:52;35.40;48.40
7362;DHT22;3721;44.490;11.220;2022-07-24T12:02:19;35.40;47.80
7362;DHT22;3721;44.490;11.220;2022-07-24T12:04:46;35.40;47.10
7362;DHT22;3721;44.490;11.220;2022-07-24T12:07:20;35.50;46.70
7362;DHT22;3721;44.490;11.220;2022-07-24T12:12:26;35.50;46.50
7362;DHT22;3721;44.490;11.220;2022-07-24T12:15:05;35.50;46.60
7362;DHT22;3721;44.490;11.220;2022-07-24T12:17:52;35.50;46.70
7362;DHT22;3721;44.490;11.220;2022-07-24T12:20:34;35.50;46.70
7362;DHT22;3721;44.490;11.220;2022-07-24T12:23:02;35.50;47.20
7362;DHT22;3721;44.490;11.220;2022-07-24T12:25:28;35.60;47.80
7362;DHT22;3721;44.490;11.220;2022-07-24T12:28:09;35.60;48.20
7362;DHT22;3721;44.490;11.220;2022-07-24T12:30:50;35.60;48.30
7362;DHT22;3721;44.490;11.220;2022-07-24T12:33:20;35.60;48.30
7362;DHT22;3721;44.490;11.220;2022-07-24T12:35:56;35.50;48.20
7362;DHT22;3721;44.490;11.220;2022-07-24T12:38:24;35.50;48.10
7362;DHT22;3721;44.490;11.220;2022-07-24T12:40:50;35.50;48.20
7362;DHT22;3721;44.490;11.220;2022-07-24T12:43:16;35.40;48.10
7362;DHT22;3721;44.490;11.220;2022-07-24T12:45:42;35.50;48.10
7362;DHT22;3721;44.490;11.220;2022-07-24T12:48:11;35.50;48.10
7362;DHT22;3721;44.490;11.220;2022-07-24T12:51:08;35.50;48.00
7362;DHT22;3721;44.490;11.220;2022-07-24T12:53:40;35.50;47.80
7362;DHT22;3721;44.490;11.220;2022-07-24T12:56:11;35.50;47.50
7362;DHT22;3721;44.490;11.220;2022-07-24T12:58:57;35.50;47.40
7362;DHT22;3721;44.490;11.220;2022-07-24T13:01:26;35.40;47.20
7362;DHT22;3721;44.490;11.220;2022-07-24T13:04:01;35.50;47.30
7362;DHT22;3721;44.490;11.220;2022-07-24T13:06:39;35.50;47.20
7362;DHT22;3721;44.490;11.220;2022-07-24T13:09:06;35.50;47.10
7362;DHT22;3721;44.490;11.220;2022-07-24T13:11:34;35.50;47.30
7362;DHT22;3721;44.490;11.220;2022-07-24T13:14:00;35.50;46.90
7362;DHT22;3721;44.490;11.220;2022-07-24T13:16:28;35.50;46.90
7362;DHT22;3721;44.490;11.220;2022-07-24T13:18:55;35.50;47.00
7362;DHT22;3721;44.490;11.220;2022-07-24T13:21:20;35.40;47.00
7362;DHT22;3721;44.490;11.220;2022-07-24T13:23:46;35.50;46.80
7362;DHT22;3721;44.490;11.220;2022-07-24T13:26:12;35.50;46.80
7362;DHT22;3721;44.490;11.220;2022-07-24T13:28:38;35.50;46.70
7362;DHT22;3721;44.490;11.220;2022-07-24T13:31:04;35.60;46.90
7362;DHT22;3721;44.490;11.220;2022-07-24T13:33:30;35.50;46.80
7362;DHT22;3721;44.490;11.220;2022-07-24T13:35:56;35.50;46.70
7362;DHT22;3721;44.490;11.220;2022-07-24T13:38:22;35.50;46.90
7362;DHT22;3721;44.490;11.220;2022-07-24T13:40:48;35.50;47.50
7362;DHT22;3721;44.490;11.220;2022-07-24T13:43:14;35.50;46.70
7362;DHT22;3721;44.490;11.220;2022-07-24T13:45:39;35.50;46.70
7362;DHT22;3721;44.490;11.220;2022-07-24T13:48:05;35.50;46.50
7362;DHT22;3721;44.490;11.220;2022-07-24T13:50:31;35.50;46.50
7362;DHT22;3721;44.490;11.220;2022-07-24T13:52:57;35.40;46.20
7362;DHT22;3721;44.490;11.220;2022-07-24T13:55:23;35.50;46.70
7362;DHT22;3721;44.490;11.220;2022-07-24T13:57:48;35.50;46.20
7362;DHT22;3721;44.490;11.220;2022-07-24T14:00:14;35.40;46.10
7362;DHT22;3721;44.490;11.220;2022-07-24T14:02:40;35.40;46.00
7362;DHT22;3721;44.490;11.220;2022-07-24T14:05:06;35.40;46.30
7362;DHT22;3721;44.490;11.220;2022-07-24T14:07:32;35.40;46.30
7362;DHT22;3721;44.490;11.220;2022-07-24T14:09:58;35.40;46.60
7362;DHT22;3721;44.490;11.220;2022-07-24T14:12:24;35.40;46.60
7362;DHT22;3721;44.490;11.220;2022-07-24T14:14:50;35.40;46.50
7362;DHT22;3721;44.490;11.220;2022-07-24T14:17:16;35.40;46.50
7362;DHT22;3721;44.490;11.220;2022-07-24T14:19:45;35.40;46.40
7362;DHT22;3721;44.490;11.220;2022-07-24T14:22:11;35.40;46.40
7362;DHT22;3721;44.490;11.220;2022-07-24T14:24:37;35.40;46.30
7362;DHT22;3721;44.490;11.220;2022-07-24T14:27:02;35.40;46.30
7362;DHT22;3721;44.490;11.220;2022-07-24T14:29:28;35.40;46.40
7362;DHT22;3721;44.490;11.220;2022-07-24T14:31:54;35.40;46.70
7362;DHT22;3721;44.490;11.220;2022-07-24T14:34:20;35.40;46.80
7362;DHT22;3721;44.490;11.220;2022-07-24T14:36:45;35.40;46.60
7362;DHT22;3721;44.490;11.220;2022-07-24T14:39:11;35.40;46.50
7362;DHT22;3721;44.490;11.220;2022-07-24T14:41:37;35.40;46.40
7362;DHT22;3721;44.490;11.220;2022-07-24T14:44:04;35.40;46.30
7362;DHT22;3721;44.490;11.220;2022-07-24T14:46:29;35.40;46.30
7362;DHT22;3721;44.490;11.220;2022-07-24T14:48:55;35.40;46.30
7362;DHT22;3721;44.490;11.220;2022-07-24T14:51:21;35.40;46.20
7362;DHT22;3721;44.490;11.220;2022-07-24T14:53:47;35.40;46.10
7362;DHT22;3721;44.490;11.220;2022-07-24T14:56:12;35.40;46.10
7362;DHT22;3721;44.490;11.220;2022-07-24T14:58:38;35.40;46.30
7362;DHT22;3721;44.490;11.220;2022-07-24T15:01:04;35.40;46.30
7362;DHT22;3721;44.490;11.220;2022-07-24T15:03:30;35.40;46.50
7362;DHT22;3721;44.490;11.220;2022-07-24T15:05:56;35.40;46.40
7362;DHT22;3721;44.490;11.220;2022-07-24T15:08:22;35.40;46.30
7362;DHT22;3721;44.490;11.220;2022-07-24T15:10:48;35.40;46.20
7362;DHT22;3721;44.490;11.220;2022-07-24T15:13:14;35.40;46.40
7362;DHT22;3721;44.490;11.220;2022-07-24T15:15:39;35.40;46.20
7362;DHT22;3721;44.490;11.220;2022-07-24T15:18:05;35.30;46.10
7362;DHT22;3721;44.490;11.220;2022-07-24T15:20:31;35.30;46.20
7362;DHT22;3721;44.490;11.220;2022-07-24T15:22:57;35.30;46.20
7362;DHT22;3721;44.490;11.220;2022-07-24T15:25:22;35.30;46.20
7362;DHT22;3721;44.490;11.220;2022-07-24T15:27:48;35.30;46.20
7362;DHT22;3721;44.490;11.220;2022-07-24T15:30:18;35.30;46.10
7362;DHT22;3721;44.490;11.220;2022-07-24T15:32:44;35.30;46.20
7362;DHT22;3721;44.490;11.220;2022-07-24T15:35:10;35.30;46.20
7362;DHT22;3721;44.490;11.220;2022-07-24T15:37:36;35.30;46.30
7362;DHT22;3721;44.490;11.220;2022-07-24T15:40:02;35.30;46.30
7362;DHT22;3721;44.490;11.220;2022-07-24T15:42:28;35.30;46.30
7362;DHT22;3721;44.490;11.220;2022-07-24T15:44:54;35.30;46.30
7362;DHT22;3721;44.490;11.220;2022-07-24T15:47:20;35.30;46.40
7362;DHT22;3721;44.490;11.220;2022-07-24T15:49:46;35.30;46.40
7362;DHT22;3721;44.490;11.220;2022-07-24T15:52:11;35.30;46.60
7362;DHT22;3721;44.490;11.220;2022-07-24T15:54:37;35.30;46.50
7362;DHT22;3721;44.490;11.220;2022-07-24T15:57:03;35.30;46.50
7362;DHT22;3721;44.490;11.220;2022-07-24T15:59:29;35.30;46.60
7362;DHT22;3721;44.490;11.220;2022-07-24T16:01:54;35.30;46.60
7362;DHT22;3721;44.490;11.220;2022-07-24T16:04:21;35.30;46.80
7362;DHT22;3721;44.490;11.220;2022-07-24T16:06:47;35.30;46.70
7362;DHT22;3721;44.490;11.220;2022-07-24T16:09:13;35.30;46.70
7362;DHT22;3721;44.490;11.220;2022-07-24T16:11:39;35.30;46.70
7362;DHT22;3721;44.490;11.220;2022-07-24T16:14:05;35.30;46.70